Time;durP1;ratioP1;P1;durP2;ratioP2;P2;SDS_P1;SDS_P2;PMS_P1;PMS_P2;Temp;Humidity;BMP_temperature;BMP_pressure;BME280_temperature;BME280_humidity;BME280_pressure;Samples;Min_cycle;Max_cycle;Signal;HPM_P1;HPM_P2
2024/03/17 00:00:14;;;;;;;7.43;5.03;;;5.60;99.90;;;;;;493831;241;27977;-74
2024/03/17 00:04:39;;;;;;;8.65;4.90;;;5.50;99.90;;;;;;493899;241;27370;-72
2024/03/17 00:06:40;;;;;;;5.30;4.50;;;5.40;99.90;;;;;;493954;241;27492;-71
2024/03/17 00:08:41;;;;;;;7.53;5.15;;;5.30;99.90;;;;;;493870;241;27550;-74
2024/03/17 00:10:43;;;;;;;7.05;4.80;;;5.30;99.90;;;;;;493891;241;28616;-73
2024/03/17 00:12:44;;;;;;;6.90;5.10;;;5.30;99.90;;;;;;493956;241;27949;-73
2024/03/17 00:14:45;;;;;;;4.60;4.15;;;5.30;99.90;;;;;;493964;241;28099;-74
2024/03/17 00:16:46;;;;;;;6.95;5.03;;;5.20;99.90;;;;;;493952;241;27468;-73
2024/03/17 00:18:48;;;;;;;5.57;3.90;;;5.20;99.90;;;;;;493917;237;27605;-74
2024/03/17 00:20:49;;;;;;;5.70;4.12;;;5.20;99.90;;;;;;494012;241;27543;-75
2024/03/17 00:22:53;;;;;;;6.95;5.25;;;5.20;99.90;;;;;;493953;241;28022;-73
2024/03/17 00:24:51;;;;;;;5.93;4.53;;;5.20;99.90;;;;;;493790;241;28052;-74
2024/03/17 00:26:53;;;;;;;6.72;5.12;;;5.20;99.90;;;;;;493938;241;27930;-73
2024/03/17 00:28:54;;;;;;;5.55;4.70;;;5.20;99.90;;;;;;493891;241;27514;-74
2024/03/17 00:30:55;;;;;;;5.60;4.00;;;5.20;99.90;;;;;;493977;241;27635;-75
2024/03/17 00:32:58;;;;;;;3.85;3.55;;;5.10;99.90;;;;;;493979;241;27481;-72
2024/03/17 00:34:58;;;;;;;4.10;3.70;;;5.10;99.90;;;;;;493866;241;27609;-73
2024/03/17 00:37:02;;;;;;;4.35;3.70;;;5.20;99.90;;;;;;493885;241;27506;-73
2024/03/17 00:39:03;;;;;;;5.22;4.00;;;5.20;99.90;;;;;;493905;237;27534;-71
2024/03/17 00:41:04;;;;;;;7.22;4.57;;;5.20;99.90;;;;;;493997;241;28023;-71
2024/03/17 00:43:05;;;;;;;6.15;4.05;;;5.30;99.90;;;;;;493968;241;27977;-73
2024/03/17 00:45:07;;;;;;;4.50;3.70;;;5.30;99.90;;;;;;493907;241;27471;-73
2024/03/17 00:47:08;;;;;;;9.30;4.40;;;5.30;99.90;;;;;;493927;241;27542;-73
2024/03/17 00:49:10;;;;;;;3.87;3.50;;;5.30;99.90;;;;;;493979;241;27542;-72
2024/03/17 00:51:11;;;;;;;4.10;3.10;;;5.30;99.90;;;;;;493900;241;27624;-73
2024/03/17 00:53:12;;;;;;;3.65;2.70;;;5.30;99.90;;;;;;493940;241;27534;-74
2024/03/17 00:55:14;;;;;;;3.62;3.08;;;5.30;99.90;;;;;;493934;241;27545;-71
2024/03/17 00:57:15;;;;;;;3.00;2.80;;;5.20;99.90;;;;;;493911;241;27942;-71
2024/03/17 00:59:16;;;;;;;3.05;2.72;;;5.20;99.90;;;;;;493887;241;28114;-71
2024/03/17 01:01:17;;;;;;;8.25;2.85;;;5.20;99.90;;;;;;493971;241;27488;-73
2024/03/17 01:03:19;;;;;;;5.30;3.72;;;5.20;99.90;;;;;;493958;237;27497;-73
2024/03/17 01:05:19;;;;;;;9.45;4.80;;;5.20;99.90;;;;;;493911;241;27616;-74
2024/03/17 01:07:21;;;;;;;9.23;4.85;;;5.10;99.90;;;;;;493953;241;27481;-70
2024/03/17 01:09:22;;;;;;;10.48;5.00;;;5.00;99.90;;;;;;493876;237;27678;-72
2024/03/17 01:11:24;;;;;;;7.15;4.00;;;5.00;99.90;;;;;;493945;241;27564;-73
2024/03/17 01:13:24;;;;;;;6.60;3.92;;;5.00;99.90;;;;;;493826;241;27908;-73
2024/03/17 01:15:26;;;;;;;6.90;3.92;;;5.00;99.90;;;;;;493989;241;28003;-74
2024/03/17 01:17:27;;;;;;;4.70;3.70;;;5.00;99.90;;;;;;493959;241;27481;-73
2024/03/17 01:19:28;;;;;;;4.45;3.40;;;5.00;99.90;;;;;;493895;241;27532;-74
2024/03/17 01:21:29;;;;;;;7.05;3.92;;;5.00;99.90;;;;;;493900;237;27517;-70
2024/03/17 01:23:31;;;;;;;8.60;4.45;;;5.00;99.90;;;;;;493948;241;27592;-71
2024/03/17 01:25:32;;;;;;;8.15;4.50;;;5.10;99.90;;;;;;493982;241;27536;-71
2024/03/17 01:27:33;;;;;;;8.73;5.03;;;5.00;99.90;;;;;;493942;241;27472;-70
2024/03/17 01:29:34;;;;;;;6.47;4.40;;;5.00;99.90;;;;;;493901;241;27991;-70
2024/03/17 01:31:36;;;;;;;6.57;4.78;;;4.90;99.90;;;;;;493936;241;28720;-71
2024/03/17 01:33:37;;;;;;;11.60;6.43;;;4.90;99.90;;;;;;493977;237;27913;-74
2024/03/17 01:35:38;;;;;;;8.00;5.25;;;4.80;99.90;;;;;;493864;241;27510;-71
2024/03/17 01:37:39;;;;;;;8.88;5.12;;;4.80;99.90;;;;;;493943;241;27665;-71
2024/03/17 01:39:41;;;;;;;9.95;6.00;;;4.80;99.90;;;;;;493885;241;27537;-74
2024/03/17 01:41:42;;;;;;;7.72;5.10;;;4.70;99.90;;;;;;493973;241;27857;-73
2024/03/17 01:43:43;;;;;;;6.60;5.28;;;4.70;99.90;;;;;;493953;241;27480;-70
2024/03/17 01:45:44;;;;;;;6.93;4.85;;;4.80;99.90;;;;;;493935;241;28030;-72
2024/03/17 01:47:46;;;;;;;8.82;5.32;;;4.80;99.90;;;;;;493888;241;27972;-70
2024/03/17 01:49:47;;;;;;;8.23;5.57;;;4.70;99.90;;;;;;493929;241;28017;-71
2024/03/17 01:51:48;;;;;;;9.18;5.07;;;4.70;99.90;;;;;;493965;237;27544;-71
2024/03/17 01:53:50;;;;;;;5.28;4.70;;;4.70;99.90;;;;;;493876;241;27502;-71
2024/03/17 01:55:51;;;;;;;5.90;4.87;;;4.80;99.90;;;;;;493923;241;27489;-71
2024/03/17 01:57:52;;;;;;;6.40;4.65;;;4.70;99.90;;;;;;493883;241;27560;-71
2024/03/17 01:59:53;;;;;;;5.85;4.62;;;4.70;99.90;;;;;;493968;241;27917;-71
2024/03/17 02:01:55;;;;;;;5.95;4.18;;;4.50;99.90;;;;;;493940;241;27540;-72
2024/03/17 02:03:56;;;;;;;8.63;5.25;;;4.50;99.90;;;;;;493926;237;27479;-71
2024/03/17 02:05:57;;;;;;;8.27;4.47;;;4.50;99.90;;;;;;493878;241;27560;-72
2024/03/17 02:07:58;;;;;;;6.82;5.05;;;4.50;99.90;;;;;;493934;241;27857;-72
2024/03/17 02:10:00;;;;;;;7.70;4.75;;;4.60;99.90;;;;;;493952;241;27520;-71
2024/03/17 02:12:01;;;;;;;13.98;4.40;;;4.60;99.90;;;;;;493925;241;27520;-71
2024/03/17 02:14:02;;;;;;;6.55;3.83;;;4.60;99.90;;;;;;493926;241;28020;-71
2024/03/17 02:16:03;;;;;;;4.97;3.90;;;4.50;99.90;;;;;;493961;241;27933;-71
2024/03/17 02:18:05;;;;;;;4.93;4.40;;;4.40;99.90;;;;;;493929;241;28001;-71
2024/03/17 02:20:07;;;;;;;5.35;3.78;;;4.40;99.90;;;;;;493931;241;27470;-71
2024/03/17 02:22:07;;;;;;;4.93;4.20;;;4.30;99.90;;;;;;493835;241;27604;-71
2024/03/17 02:24:08;;;;;;;4.40;3.60;;;4.20;99.90;;;;;;493928;241;27490;-71
2024/03/17 02:26:10;;;;;;;3.87;3.58;;;4.20;99.90;;;;;;493951;241;27508;-71
2024/03/17 02:28:11;;;;;;;3.95;3.45;;;4.20;99.90;;;;;;493908;241;27545;-72
2024/03/17 02:30:12;;;;;;;4.60;3.60;;;4.20;99.90;;;;;;493943;241;27456;-71
2024/03/17 02:32:13;;;;;;;4.00;3.70;;;4.10;99.90;;;;;;493897;241;27514;-72
2024/03/17 02:34:15;;;;;;;3.40;3.10;;;4.10;99.90;;;;;;493950;241;28119;-72
2024/03/17 02:36:17;;;;;;;4.95;3.47;;;4.10;99.90;;;;;;493952;241;27989;-71
2024/03/17 02:39:31;;;;;;;3.47;3.28;;;4.10;99.90;;;;;;493862;241;27979;-72
2024/03/17 02:40:19;;;;;;;3.60;3.25;;;4.10;99.90;;;;;;492130;241;27538;-71
2024/03/17 02:42:20;;;;;;;3.95;3.50;;;4.00;99.90;;;;;;493926;241;27510;-72
2024/03/17 02:44:21;;;;;;;3.53;3.22;;;4.00;99.90;;;;;;493798;241;27653;-72
2024/03/17 02:46:23;;;;;;;4.35;3.22;;;3.90;99.90;;;;;;493980;237;27457;-74
2024/03/17 02:48:24;;;;;;;3.35;3.05;;;3.90;99.90;;;;;;493899;241;27513;-71
2024/03/17 02:50:25;;;;;;;3.00;2.80;;;3.80;99.90;;;;;;493920;241;27486;-71
2024/03/17 02:52:26;;;;;;;4.25;3.20;;;3.90;99.90;;;;;;493886;241;27603;-70
2024/03/17 02:54:27;;;;;;;3.42;2.42;;;3.80;99.90;;;;;;493879;241;27514;-72
2024/03/17 02:56:28;;;;;;;3.37;2.80;;;3.80;99.90;;;;;;493944;237;27950;-71
2024/03/17 02:58:30;;;;;;;4.40;2.70;;;3.80;99.90;;;;;;493905;241;28064;-71
2024/03/17 03:00:31;;;;;;;2.78;2.58;;;3.80;99.90;;;;;;493960;241;29016;-71
2024/03/17 03:02:32;;;;;;;2.60;2.40;;;3.80;99.90;;;;;;494008;241;27933;-71
2024/03/17 03:04:33;;;;;;;4.12;2.58;;;3.80;99.90;;;;;;493950;241;27501;-71
2024/03/17 03:06:35;;;;;;;3.60;2.80;;;3.80;99.90;;;;;;493949;237;27465;-71
2024/03/17 03:08:38;;;;;;;2.60;2.40;;;3.80;99.90;;;;;;493904;241;27499;-71
2024/03/17 03:10:37;;;;;;;3.20;2.90;;;3.80;99.90;;;;;;493815;241;27583;-73
2024/03/17 03:12:38;;;;;;;4.70;2.95;;;3.70;99.90;;;;;;493916;241;27473;-71
2024/03/17 03:14:40;;;;;;;2.80;2.60;;;3.70;99.90;;;;;;493911;237;27528;-71
2024/03/17 03:16:41;;;;;;;2.97;2.67;;;3.60;99.90;;;;;;493905;241;27465;-71
2024/03/17 03:18:44;;;;;;;2.80;2.60;;;3.60;99.90;;;;;;493815;241;27537;-71
2024/03/17 03:20:43;;;;;;;3.45;2.70;;;3.60;99.90;;;;;;493816;241;27661;-73
2024/03/17 03:22:45;;;;;;;2.60;2.40;;;3.60;99.90;;;;;;493931;241;28091;-71
2024/03/17 03:24:46;;;;;;;3.30;2.87;;;3.50;99.90;;;;;;493889;241;28064;-72
2024/03/17 03:26:48;;;;;;;6.78;4.22;;;3.50;99.90;;;;;;493902;238;27910;-71
2024/03/17 03:28:49;;;;;;;4.95;3.92;;;3.50;99.90;;;;;;493856;241;29011;-71
2024/03/17 03:30:51;;;;;;;8.88;4.95;;;3.50;99.90;;;;;;493928;241;27520;-72
2024/03/17 03:32:51;;;;;;;6.75;4.85;;;3.50;99.90;;;;;;493859;241;27577;-71
2024/03/17 03:34:53;;;;;;;5.37;4.00;;;3.40;99.90;;;;;;493867;241;27505;-71
2024/03/17 03:36:53;;;;;;;6.22;4.30;;;3.40;99.90;;;;;;493902;241;27510;-71
2024/03/17 03:38:55;;;;;;;3.80;3.40;;;3.40;99.90;;;;;;493922;241;27502;-71
2024/03/17 03:40:57;;;;;;;4.82;3.75;;;3.50;99.90;;;;;;493917;241;27588;-72
2024/03/17 03:42:57;;;;;;;3.78;3.20;;;3.50;99.90;;;;;;493896;241;27473;-71
2024/03/17 03:44:58;;;;;;;3.20;2.90;;;3.50;99.90;;;;;;493860;241;27502;-71
2024/03/17 03:47:00;;;;;;;4.20;3.60;;;3.60;99.90;;;;;;493933;241;27640;-72
2024/03/17 03:49:01;;;;;;;4.35;3.90;;;3.50;99.90;;;;;;493835;241;27576;-71
2024/03/17 03:51:02;;;;;;;4.45;3.60;;;3.50;99.90;;;;;;493903;241;27993;-72
2024/03/17 03:53:03;;;;;;;8.88;4.03;;;3.50;99.90;;;;;;493811;241;28108;-70
2024/03/17 03:55:07;;;;;;;4.62;3.65;;;3.60;99.90;;;;;;493894;241;29023;-71
2024/03/17 03:57:06;;;;;;;5.90;3.60;;;3.60;99.90;;;;;;493811;241;27514;-71
2024/03/17 03:59:07;;;;;;;3.90;3.30;;;3.70;99.90;;;;;;493869;241;27561;-71
2024/03/17 04:01:08;;;;;;;5.97;3.20;;;3.80;99.90;;;;;;493934;241;27534;-71
2024/03/17 04:03:10;;;;;;;5.95;3.58;;;3.80;99.90;;;;;;493901;241;27521;-71
2024/03/17 04:05:11;;;;;;;4.25;2.80;;;3.80;99.90;;;;;;493973;241;27564;-71
2024/03/17 04:07:12;;;;;;;3.15;2.85;;;3.80;99.90;;;;;;493940;241;27522;-71
2024/03/17 04:09:13;;;;;;;3.03;2.80;;;3.70;99.90;;;;;;493660;241;27481;-71
2024/03/17 04:11:15;;;;;;;3.72;3.42;;;3.70;99.90;;;;;;493912;241;27516;-71
2024/03/17 04:13:16;;;;;;;3.42;3.12;;;3.70;99.90;;;;;;493942;237;27510;-72
2024/03/17 04:15:17;;;;;;;5.53;2.97;;;3.60;99.90;;;;;;493953;237;27480;-71
2024/03/17 04:17:18;;;;;;;3.78;3.35;;;3.60;99.90;;;;;;493945;241;28006;-72
2024/03/17 04:19:20;;;;;;;3.95;3.47;;;3.40;99.90;;;;;;493888;241;28078;-71
2024/03/17 04:21:21;;;;;;;3.70;3.40;;;3.40;99.90;;;;;;493925;241;28063;-71
2024/03/17 04:23:22;;;;;;;4.47;3.85;;;3.50;99.90;;;;;;493974;241;28130;-72
2024/03/17 04:25:23;;;;;;;3.30;3.10;;;3.50;99.90;;;;;;493967;241;27538;-71
2024/03/17 04:27:25;;;;;;;3.10;2.75;;;3.50;99.90;;;;;;493944;241;27642;-71
2024/03/17 04:29:26;;;;;;;4.00;2.83;;;3.40;99.90;;;;;;493608;237;27493;-71
2024/03/17 04:31:27;;;;;;;3.92;3.10;;;3.40;99.90;;;;;;493941;237;27617;-72
2024/03/17 04:33:28;;;;;;;3.10;2.90;;;3.30;99.90;;;;;;493943;241;27585;-72
2024/03/17 04:35:30;;;;;;;4.22;2.90;;;3.30;99.90;;;;;;493928;241;27534;-71
2024/03/17 04:37:38;;;;;;;3.00;2.70;;;3.30;99.90;;;;;;493914;241;27616;-71
2024/03/17 04:39:32;;;;;;;2.90;2.70;;;3.20;99.90;;;;;;493300;241;27475;-71
2024/03/17 04:41:33;;;;;;;3.05;2.83;;;3.20;99.90;;;;;;493985;241;27589;-71
2024/03/17 04:43:35;;;;;;;2.60;2.40;;;3.20;99.90;;;;;;493943;241;28063;-71
2024/03/17 04:45:37;;;;;;;3.00;2.80;;;3.20;99.90;;;;;;493954;241;28093;-71
2024/03/17 04:47:37;;;;;;;2.80;2.60;;;3.10;99.90;;;;;;493846;241;27990;-71
2024/03/17 04:49:38;;;;;;;4.35;3.25;;;3.10;99.90;;;;;;493920;237;29244;-71
2024/03/17 04:51:40;;;;;;;4.03;3.20;;;3.10;99.90;;;;;;493952;241;27619;-71
2024/03/17 04:53:41;;;;;;;3.30;3.10;;;3.00;99.90;;;;;;493887;241;27520;-72
2024/03/17 04:55:42;;;;;;;7.00;3.20;;;3.00;99.90;;;;;;493912;241;27549;-71
2024/03/17 04:57:43;;;;;;;3.30;3.00;;;3.00;99.90;;;;;;493906;237;27502;-72
2024/03/17 04:59:45;;;;;;;3.08;2.60;;;3.00;99.90;;;;;;493937;241;27500;-72
2024/03/17 05:01:46;;;;;;;3.17;2.87;;;3.00;99.90;;;;;;493951;241;27489;-71
2024/03/17 05:03:47;;;;;;;3.20;2.90;;;3.00;99.90;;;;;;493947;237;27510;-71
2024/03/17 05:05:49;;;;;;;3.55;3.05;;;2.90;99.90;;;;;;493929;241;27538;-71
2024/03/17 05:07:50;;;;;;;5.60;3.00;;;2.90;99.90;;;;;;493963;241;27497;-72
2024/03/17 05:09:51;;;;;;;3.87;2.90;;;2.80;99.90;;;;;;493943;241;27505;-72
2024/03/17 05:11:52;;;;;;;3.15;2.95;;;2.90;99.90;;;;;;493943;241;27914;-70
2024/03/17 05:13:54;;;;;;;3.45;3.00;;;2.90;99.90;;;;;;493905;241;28066;-71
2024/03/17 05:17:52;;;;;;;2.87;2.67;;;2.90;99.90;;;;;;501954;233;38663;-73
2024/03/17 05:19:53;;;;;;;3.25;2.72;;;2.80;99.90;;;;;;494066;240;27500;-73
2024/03/17 05:21:54;;;;;;;2.55;2.45;;;2.80;99.90;;;;;;494036;240;27567;-72
2024/03/17 05:23:56;;;;;;;2.67;2.58;;;2.80;99.90;;;;;;494039;240;27580;-72
2024/03/17 05:25:57;;;;;;;4.55;2.55;;;2.80;99.90;;;;;;494018;240;27459;-72
2024/03/17 05:27:58;;;;;;;2.50;2.40;;;2.80;99.90;;;;;;494040;240;27468;-72
2024/03/17 05:29:59;;;;;;;3.30;2.80;;;2.80;99.90;;;;;;494038;240;27517;-73
2024/03/17 05:32:02;;;;;;;2.78;2.58;;;2.70;99.90;;;;;;494039;240;27938;-72
2024/03/17 05:34:02;;;;;;;2.97;2.67;;;2.70;99.90;;;;;;493903;240;28025;-72
2024/03/17 05:36:04;;;;;;;2.78;2.58;;;2.70;99.90;;;;;;493940;240;28138;-74
2024/03/17 05:38:04;;;;;;;3.28;2.92;;;2.70;99.90;;;;;;493956;240;29118;-72
2024/03/17 05:40:06;;;;;;;3.00;2.75;;;2.70;99.90;;;;;;494068;240;27543;-72
2024/03/17 05:42:07;;;;;;;3.37;2.53;;;2.70;99.90;;;;;;494038;240;27545;-72
2024/03/17 05:44:08;;;;;;;3.87;2.95;;;2.60;99.90;;;;;;494010;237;27487;-72
2024/03/17 05:46:09;;;;;;;3.00;2.70;;;2.50;99.90;;;;;;494065;240;27619;-73
2024/03/17 05:48:11;;;;;;;2.95;2.75;;;2.60;99.90;;;;;;494017;240;27560;-71
2024/03/17 05:50:12;;;;;;;2.95;2.75;;;2.60;99.90;;;;;;494071;240;27573;-72
2024/03/17 05:52:13;;;;;;;2.72;2.58;;;2.60;99.90;;;;;;494051;240;27456;-71
2024/03/17 05:54:14;;;;;;;3.30;2.50;;;2.70;99.90;;;;;;494077;237;27461;-72
2024/03/17 05:56:18;;;;;;;3.05;2.75;;;2.70;99.90;;;;;;494092;240;27503;-73
2024/03/17 05:58:19;;;;;;;2.70;2.50;;;2.70;99.90;;;;;;494059;240;27595;-74
2024/03/17 06:00:21;;;;;;;3.17;2.87;;;2.70;99.90;;;;;;494073;240;27461;-72
2024/03/17 06:02:22;;;;;;;3.72;3.35;;;2.80;99.90;;;;;;494046;237;27580;-72
2024/03/17 06:04:24;;;;;;;2.80;2.60;;;2.80;99.90;;;;;;494042;240;27517;-71
2024/03/17 06:06:24;;;;;;;3.20;2.87;;;2.80;99.90;;;;;;494101;240;27457;-72
2024/03/17 06:08:26;;;;;;;3.03;2.47;;;2.90;99.90;;;;;;494057;237;27537;-72
2024/03/17 06:10:27;;;;;;;2.50;2.30;;;3.00;99.90;;;;;;494022;240;27462;-72
2024/03/17 06:12:30;;;;;;;2.75;2.55;;;3.00;99.90;;;;;;494075;240;27492;-72
2024/03/17 06:14:29;;;;;;;2.70;2.50;;;3.00;99.90;;;;;;493926;240;27619;-73
2024/03/17 06:16:31;;;;;;;3.35;2.30;;;3.00;99.90;;;;;;494079;237;27909;-72
2024/03/17 06:18:32;;;;;;;3.05;2.70;;;3.00;99.90;;;;;;494052;240;27522;-72
2024/03/17 06:20:33;;;;;;;2.62;2.50;;;3.00;99.90;;;;;;494048;240;27541;-72
2024/03/17 06:22:35;;;;;;;2.75;2.60;;;3.10;99.90;;;;;;494056;240;27518;-72
2024/03/17 06:24:37;;;;;;;3.60;3.10;;;3.20;99.90;;;;;;494069;240;27643;-72
2024/03/17 06:26:37;;;;;;;3.45;2.87;;;3.20;99.90;;;;;;493941;240;27620;-72
2024/03/17 06:28:38;;;;;;;3.62;3.30;;;3.20;99.90;;;;;;493916;240;27501;-72
2024/03/17 06:30:40;;;;;;;3.75;3.45;;;3.10;99.90;;;;;;493908;241;27597;-72
2024/03/17 06:32:41;;;;;;;3.60;3.30;;;3.20;99.90;;;;;;493964;241;27976;-72
2024/03/17 06:34:43;;;;;;;4.05;3.70;;;3.30;99.90;;;;;;493967;241;28081;-72
2024/03/17 06:36:43;;;;;;;3.22;3.03;;;3.30;99.90;;;;;;493869;241;27927;-72
2024/03/17 06:38:45;;;;;;;3.70;3.40;;;3.40;99.90;;;;;;493861;241;28098;-72
2024/03/17 06:40:46;;;;;;;3.25;2.92;;;3.50;99.90;;;;;;493928;241;27632;-72
2024/03/17 06:42:47;;;;;;;3.97;3.35;;;3.60;99.90;;;;;;493986;241;27458;-72
2024/03/17 06:44:48;;;;;;;3.60;3.17;;;3.70;99.90;;;;;;493939;241;27616;-73
2024/03/17 06:46:50;;;;;;;7.00;3.45;;;3.80;99.90;;;;;;493926;241;27513;-71
2024/03/17 06:48:51;;;;;;;3.30;3.00;;;3.80;99.90;;;;;;493848;237;27517;-71
2024/03/17 06:50:54;;;;;;;3.40;3.10;;;3.90;99.90;;;;;;493977;241;27905;-73
2024/03/17 06:52:53;;;;;;;2.85;2.65;;;4.10;99.90;;;;;;493856;241;27476;-72
2024/03/17 06:54:55;;;;;;;3.65;3.20;;;4.20;99.90;;;;;;493903;241;27573;-72
2024/03/17 06:56:56;;;;;;;3.00;2.80;;;4.30;99.90;;;;;;493892;237;27464;-72
2024/03/17 06:58:58;;;;;;;2.90;2.65;;;4.50;99.90;;;;;;493902;241;27947;-72
2024/03/17 07:00:59;;;;;;;2.90;2.65;;;4.60;99.90;;;;;;493957;241;27958;-72
2024/03/17 07:03:00;;;;;;;5.32;2.78;;;4.70;99.90;;;;;;493968;241;28119;-71
2024/03/17 07:05:02;;;;;;;2.17;2.08;;;4.80;99.90;;;;;;493912;237;27514;-72
2024/03/17 07:07:02;;;;;;;3.40;2.70;;;5.00;99.90;;;;;;493910;241;27590;-72
2024/03/17 07:09:03;;;;;;;2.78;2.58;;;5.10;99.90;;;;;;493935;241;27461;-71
2024/03/17 07:11:05;;;;;;;2.47;2.28;;;5.30;99.90;;;;;;493973;241;27501;-71
2024/03/17 07:13:06;;;;;;;2.53;2.33;;;5.50;99.90;;;;;;493886;241;27520;-74
2024/03/17 07:15:08;;;;;;;3.95;2.85;;;5.50;99.90;;;;;;493854;241;27505;-71
2024/03/17 07:17:08;;;;;;;2.90;2.70;;;5.40;99.90;;;;;;493933;241;28026;-75
2024/03/17 07:19:10;;;;;;;3.22;2.87;;;5.30;99.90;;;;;;493873;237;28086;-73
2024/03/17 07:21:11;;;;;;;2.87;2.65;;;5.40;99.90;;;;;;493905;241;27660;-74
2024/03/17 07:23:12;;;;;;;3.47;3.17;;;5.40;99.90;;;;;;493868;241;27549;-74
2024/03/17 07:25:13;;;;;;;2.97;2.67;;;5.50;99.90;;;;;;493939;241;27502;-71
2024/03/17 07:27:15;;;;;;;2.80;2.60;;;5.60;99.90;;;;;;493935;241;27528;-72
2024/03/17 07:29:16;;;;;;;2.35;2.20;;;5.70;99.90;;;;;;493916;241;27458;-70
2024/03/17 07:31:17;;;;;;;3.00;2.67;;;5.70;99.90;;;;;;493911;241;28085;-72
2024/03/17 07:33:20;;;;;;;3.70;2.80;;;5.70;99.90;;;;;;493896;241;28676;-70
2024/03/17 07:35:21;;;;;;;2.65;2.47;;;5.80;99.90;;;;;;493870;241;27616;-71
2024/03/17 07:37:21;;;;;;;2.50;2.37;;;5.80;99.90;;;;;;493882;241;27520;-73
2024/03/17 07:39:22;;;;;;;3.95;3.05;;;5.90;99.90;;;;;;493906;241;27463;-72
2024/03/17 07:41:27;;;;;;;3.00;2.78;;;6.00;99.90;;;;;;493937;241;27491;-72
2024/03/17 07:43:25;;;;;;;3.33;2.80;;;6.00;99.90;;;;;;493765;241;27546;-74
2024/03/17 07:45:26;;;;;;;2.80;2.60;;;6.10;99.90;;;;;;493991;241;29256;-73
2024/03/17 07:47:35;;;;;;;2.60;2.37;;;6.30;99.90;;;;;;493950;241;27988;-72
2024/03/17 07:49:28;;;;;;;2.42;2.22;;;6.40;99.90;;;;;;493253;241;29294;-72
2024/03/17 07:51:30;;;;;;;3.40;3.10;;;6.50;99.90;;;;;;493953;241;27517;-74
2024/03/17 07:53:31;;;;;;;3.37;3.10;;;6.50;99.90;;;;;;493993;241;28208;-75
2024/03/17 07:55:32;;;;;;;3.95;2.90;;;6.60;99.90;;;;;;493957;241;28406;-73
2024/03/17 07:57:34;;;;;;;3.50;2.60;;;6.60;99.90;;;;;;493890;241;27596;-74
2024/03/17 07:59:35;;;;;;;2.50;2.30;;;6.70;99.90;;;;;;493900;241;28358;-73
2024/03/17 08:01:36;;;;;;;2.33;2.20;;;6.80;99.90;;;;;;493990;241;28233;-74
2024/03/17 08:03:37;;;;;;;5.33;3.00;;;6.80;99.90;;;;;;493947;241;28065;-74
2024/03/17 08:05:38;;;;;;;3.53;2.70;;;6.80;99.90;;;;;;493950;241;28782;-74
2024/03/17 08:07:42;;;;;;;3.40;2.40;;;6.90;99.90;;;;;;493915;241;28285;-73
2024/03/17 08:09:41;;;;;;;2.83;2.63;;;6.90;99.90;;;;;;493778;241;28651;-74
2024/03/17 08:11:46;;;;;;;2.47;2.27;;;7.00;99.90;;;;;;493956;241;28241;-72
2024/03/17 08:13:43;;;;;;;2.97;2.20;;;7.00;99.90;;;;;;493549;241;28372;-73
2024/03/17 08:15:48;;;;;;;2.17;2.07;;;7.00;99.90;;;;;;493897;241;28420;-73
2024/03/17 08:17:46;;;;;;;2.57;2.37;;;7.00;99.90;;;;;;493631;241;28098;-73
2024/03/17 08:19:47;;;;;;;2.53;2.33;;;7.10;99.90;;;;;;493976;241;28024;-74
2024/03/17 08:21:49;;;;;;;3.03;2.73;;;7.10;99.90;;;;;;493970;241;27973;-73
2024/03/17 08:23:50;;;;;;;4.40;2.80;;;7.20;99.90;;;;;;493963;241;27700;-73
2024/03/17 08:25:51;;;;;;;2.90;2.70;;;7.30;99.90;;;;;;493967;241;27949;-73
2024/03/17 08:27:52;;;;;;;2.60;2.40;;;7.40;99.90;;;;;;493935;241;27978;-74
2024/03/17 08:29:54;;;;;;;3.00;2.80;;;7.50;99.90;;;;;;493986;241;28102;-74
2024/03/17 08:31:55;;;;;;;2.70;2.50;;;7.60;99.90;;;;;;493995;241;28070;-73
2024/03/17 08:33:56;;;;;;;2.23;2.13;;;7.70;99.90;;;;;;493983;241;28030;-73
2024/03/17 08:35:57;;;;;;;2.93;2.57;;;7.80;99.90;;;;;;493964;241;27792;-73
2024/03/17 08:38:00;;;;;;;2.93;2.67;;;7.90;99.90;;;;;;493968;237;27827;-73
2024/03/17 08:40:00;;;;;;;3.20;2.50;;;7.90;99.90;;;;;;493899;241;27666;-74
2024/03/17 08:42:01;;;;;;;3.00;2.67;;;8.00;99.90;;;;;;493969;241;27946;-71
2024/03/17 08:44:02;;;;;;;3.20;2.90;;;8.10;99.90;;;;;;493929;241;27984;-73
2024/03/17 08:46:04;;;;;;;2.50;2.30;;;8.10;99.90;;;;;;493986;241;28381;-74
2024/03/17 08:48:05;;;;;;;4.17;2.90;;;8.20;99.90;;;;;;493886;241;28395;-73
2024/03/17 08:50:08;;;;;;;3.00;2.77;;;8.30;99.90;;;;;;493972;241;28309;-73
2024/03/17 08:52:07;;;;;;;2.70;2.50;;;8.40;99.90;;;;;;493820;241;28386;-72
2024/03/17 08:54:08;;;;;;;2.97;2.70;;;8.50;99.90;;;;;;493887;241;28485;-73
2024/03/17 08:56:10;;;;;;;4.30;3.90;;;8.70;99.90;;;;;;494001;241;28534;-73
2024/03/17 08:58:11;;;;;;;5.23;3.50;;;8.70;99.90;;;;;;493944;241;27949;-72
2024/03/17 09:00:14;;;;;;;4.83;3.37;;;8.90;99.90;;;;;;493974;241;27961;-73
2024/03/17 09:02:14;;;;;;;5.13;3.50;;;9.00;99.90;;;;;;493790;241;27708;-73
2024/03/17 09:04:15;;;;;;;4.27;3.33;;;9.20;99.90;;;;;;493807;241;27715;-73
2024/03/17 09:06:16;;;;;;;4.27;3.40;;;9.20;99.90;;;;;;494012;241;27771;-75
2024/03/17 09:08:18;;;;;;;3.97;3.57;;;9.40;99.90;;;;;;493953;241;27822;-73
2024/03/17 09:10:18;;;;;;;7.20;4.63;;;9.50;99.90;;;;;;493966;241;28023;-73
2024/03/17 09:12:20;;;;;;;7.77;4.47;;;9.60;99.90;;;;;;493944;241;28401;-73
2024/03/17 09:14:21;;;;;;;7.53;4.20;;;9.70;99.90;;;;;;493989;241;27924;-73
2024/03/17 09:16:24;;;;;;;4.97;4.07;;;9.90;99.90;;;;;;493830;241;27639;-73
2024/03/17 09:18:23;;;;;;;4.87;3.47;;;10.00;99.90;;;;;;493821;241;28070;-72
2024/03/17 09:20:25;;;;;;;5.40;4.17;;;10.00;99.90;;;;;;493915;241;27726;-73
2024/03/17 09:22:26;;;;;;;4.40;3.80;;;10.10;99.90;;;;;;493984;241;28621;-73
2024/03/17 09:24:27;;;;;;;3.87;3.47;;;10.10;99.90;;;;;;493976;241;28488;-73
2024/03/17 09:26:28;;;;;;;5.23;3.03;;;10.20;99.90;;;;;;493952;241;28482;-74
2024/03/17 09:28:30;;;;;;;3.43;3.13;;;10.20;99.90;;;;;;493882;241;28394;-73
2024/03/17 09:30:31;;;;;;;3.40;3.10;;;10.30;99.90;;;;;;493926;241;28030;-73
2024/03/17 09:32:32;;;;;;;3.23;2.70;;;10.30;99.90;;;;;;494006;241;27719;-74
2024/03/17 09:34:33;;;;;;;3.50;2.97;;;10.40;99.90;;;;;;493981;241;28062;-73
2024/03/17 09:36:35;;;;;;;3.80;3.40;;;10.40;99.90;;;;;;493973;241;28047;-73
2024/03/17 09:38:36;;;;;;;3.13;2.93;;;10.50;99.90;;;;;;493920;241;27823;-72
2024/03/17 09:40:37;;;;;;;3.50;3.20;;;10.50;99.90;;;;;;493986;241;27986;-73
2024/03/17 09:42:38;;;;;;;6.97;3.07;;;10.60;99.90;;;;;;494016;241;27977;-74
2024/03/17 09:44:40;;;;;;;4.07;2.93;;;10.60;99.90;;;;;;493984;241;27821;-73
2024/03/17 09:46:41;;;;;;;4.83;3.07;;;10.70;99.90;;;;;;493976;241;28460;-72
2024/03/17 09:48:43;;;;;;;3.80;3.40;;;10.80;99.90;;;;;;493925;237;29409;-73
2024/03/17 09:50:43;;;;;;;5.40;4.03;;;10.90;99.90;;;;;;493972;241;28585;-73
2024/03/17 09:52:45;;;;;;;5.67;3.67;;;11.00;99.90;;;;;;493954;241;28494;-73
2024/03/17 09:54:46;;;;;;;4.00;3.70;;;11.20;99.90;;;;;;493940;241;27923;-72
2024/03/17 09:56:47;;;;;;;4.43;3.60;;;11.30;99.90;;;;;;493947;237;28050;-73
2024/03/17 09:58:48;;;;;;;4.57;3.43;;;11.40;99.90;;;;;;493914;238;28038;-74
2024/03/17 10:00:50;;;;;;;3.97;3.57;;;11.60;99.90;;;;;;493962;237;28037;-73
2024/03/17 10:02:51;;;;;;;4.20;3.57;;;11.60;99.90;;;;;;493929;241;28442;-73
2024/03/17 10:04:52;;;;;;;6.70;3.37;;;11.60;99.90;;;;;;493928;241;28290;-72
2024/03/17 10:06:56;;;;;;;8.90;4.07;;;11.60;99.90;;;;;;493973;241;28078;-72
2024/03/17 10:08:55;;;;;;;4.07;3.17;;;11.50;99.90;;;;;;493749;241;28219;-73
2024/03/17 10:10:56;;;;;;;8.50;4.33;;;11.40;99.90;;;;;;493961;241;28152;-72
2024/03/17 10:12:57;;;;;;;6.07;3.73;;;11.50;99.90;;;;;;493940;241;28082;-73
2024/03/17 10:14:59;;;;;;;4.03;3.40;;;11.50;99.90;;;;;;493944;241;28362;-73
2024/03/17 10:17:00;;;;;;;3.97;3.57;;;11.50;99.90;;;;;;493988;241;28284;-73
2024/03/17 10:19:01;;;;;;;3.90;3.40;;;11.60;99.90;;;;;;493964;241;28466;-72
2024/03/17 10:21:02;;;;;;;4.10;3.13;;;11.70;99.90;;;;;;493934;241;28809;-73
2024/03/17 10:23:04;;;;;;;5.60;3.50;;;11.80;99.90;;;;;;493929;241;28906;-73
2024/03/17 10:25:05;;;;;;;5.33;3.07;;;11.80;99.90;;;;;;493957;237;28967;-74
2024/03/17 10:27:06;;;;;;;6.10;3.50;;;11.90;99.90;;;;;;494001;241;28145;-72
2024/03/17 10:29:07;;;;;;;4.50;3.60;;;12.00;99.90;;;;;;493935;237;28110;-73
2024/03/17 10:31:09;;;;;;;3.87;3.47;;;12.00;99.90;;;;;;493951;241;28430;-73
2024/03/17 10:33:11;;;;;;;3.13;2.80;;;12.10;99.90;;;;;;493946;241;28227;-73
2024/03/17 10:35:11;;;;;;;4.03;2.90;;;12.10;99.90;;;;;;493932;241;28249;-75
2024/03/17 10:37:13;;;;;;;3.67;2.90;;;12.30;99.90;;;;;;493948;241;28056;-73
2024/03/17 10:39:14;;;;;;;8.37;4.90;;;12.40;99.90;;;;;;493904;241;28539;-73
2024/03/17 10:41:15;;;;;;;4.27;3.43;;;12.30;99.90;;;;;;493931;241;28459;-73